Time;durP1;ratioP1;P1;durP2;ratioP2;P2;SDS_P1;SDS_P2;PMS_P1;PMS_P2;Temp;Humidity;BMP_temperature;BMP_pressure;BME280_temperature;BME280_humidity;BME280_pressure;Samples;Min_cycle;Max_cycle;Signal;HPM_P1;HPM_P2
2022/11/26 00:02:20;;;;;;;28.27;10.43;;;;;;;8.71;71.23;102514.72;5027350;28;20079;-60
2022/11/26 00:04:46;;;;;;;22.90;10.57;;;;;;;8.67;71.17;102521.72;5026096;28;20117;-60
2022/11/26 00:07:14;;;;;;;20.25;10.45;;;;;;;8.67;70.58;102514.28;5029140;28;20120;-60
2022/11/26 00:09:40;;;;;;;22.67;11.18;;;;;;;8.69;70.58;102514.94;5048234;28;20029;-60
2022/11/26 00:12:21;;;;;;;22.67;10.75;;;;;;;8.66;71.37;102518.09;5045828;28;20364;-60
2022/11/26 00:14:47;;;;;;;23.67;10.52;;;;;;;8.64;70.97;102519.34;5031113;28;20041;-60
2022/11/26 00:17:14;;;;;;;21.25;9.80;;;;;;;8.64;70.84;102519.34;5028742;28;20567;-60
2022/11/26 00:19:40;;;;;;;19.38;10.18;;;;;;;8.60;71.27;102527.19;5031464;28;20029;-60
2022/11/26 00:22:20;;;;;;;19.77;9.70;;;;;;;8.56;71.39;102529.50;5028395;28;20033;-60
2022/11/26 00:24:45;;;;;;;20.02;10.55;;;;;;;8.53;71.50;102532.69;5030568;28;20029;-60
2022/11/26 00:27:11;;;;;;;23.83;10.80;;;;;;;8.55;70.74;102527.78;5046157;28;20029;-60
2022/11/26 00:29:36;;;;;;;24.85;9.65;;;;;;;8.53;70.80;102532.69;5049621;28;20036;-60
2022/11/26 00:32:02;;;;;;;21.08;10.48;;;;;;;8.52;70.67;102536.47;5030772;28;20073;-60
2022/11/26 00:34:27;;;;;;;19.83;10.10;;;;;;;8.49;70.86;102531.38;5029816;28;20037;-60
2022/11/26 00:36:52;;;;;;;21.52;10.75;;;;;;;8.50;70.58;102524.78;5030820;28;20045;-61
2022/11/26 00:39:23;;;;;;;18.15;9.73;;;;;;;8.50;70.79;102530.31;5029653;28;20548;-60
2022/11/26 00:41:52;;;;;;;19.92;9.30;;;;;;;8.49;71.30;102531.38;5032587;28;20107;-60
2022/11/26 00:44:20;;;;;;;19.50;10.13;;;;;;;8.47;70.85;102527.94;5030078;28;20033;-60
2022/11/26 00:46:45;;;;;;;23.58;10.80;;;;;;;8.45;70.83;102535.59;5035922;28;20068;-61
2022/11/26 00:49:10;;;;;;;22.13;9.82;;;;;;;8.40;70.54;102529.78;5031033;28;20449;-60
2022/11/26 00:51:36;;;;;;;19.35;10.35;;;;;;;8.39;70.01;102541.06;5031456;28;20047;-61
2022/11/26 00:54:02;;;;;;;20.30;10.75;;;;;;;8.38;70.26;102539.34;5028232;28;20040;-60
2022/11/26 00:56:29;;;;;;;21.15;9.48;;;;;;;8.34;70.53;102538.84;5030611;28;20030;-61
2022/11/26 00:58:54;;;;;;;20.63;9.45;;;;;;;8.34;70.70;102533.31;5031610;28;20038;-60
2022/11/26 01:01:22;;;;;;;18.13;10.07;;;;;;;8.31;70.44;102542.84;5030969;28;20135;-61
2022/11/26 01:03:47;;;;;;;21.08;10.40;;;;;;;8.28;70.34;102534.09;5027048;28;21239;-61
2022/11/26 01:06:27;;;;;;;19.83;9.40;;;;;;;8.33;70.93;102543.53;5029289;28;20546;-60
2022/11/26 01:08:56;;;;;;;21.67;10.25;;;;;;;8.25;70.52;102545.53;5013195;28;20030;-60
2022/11/26 01:11:22;;;;;;;21.77;10.30;;;;;;;8.20;70.72;102539.75;5012048;28;20038;-60
2022/11/26 01:13:50;;;;;;;19.70;10.20;;;;;;;8.20;70.50;102545.28;5017580;28;20033;-60
2022/11/26 01:16:24;;;;;;;22.55;10.38;;;;;;;8.23;70.43;102542.13;5023062;28;20057;-60
2022/11/26 01:18:53;;;;;;;20.50;9.80;;;;;;;8.16;71.58;102541.19;5017453;28;20052;-60
2022/11/26 01:21:19;;;;;;;21.27;10.57;;;;;;;8.19;71.28;102540.81;5030475;28;20033;-60
2022/11/26 01:23:45;;;;;;;23.42;10.50;;;;;;;8.15;71.41;102542.25;5012381;28;20057;-60
2022/11/26 01:26:21;;;;;;;21.23;10.55;;;;;;;8.14;71.75;102538.63;5012021;28;20057;-60
2022/11/26 01:28:47;;;;;;;24.85;11.50;;;;;;;8.09;71.67;102530.03;5012572;28;20058;-60
2022/11/26 01:31:15;;;;;;;18.40;11.05;;;;;;;8.07;71.21;102535.78;5031836;28;20068;-60
2022/11/26 01:33:40;;;;;;;23.92;11.43;;;;;;;8.07;71.76;102532.16;5028462;28;20033;-60
2022/11/26 01:36:21;;;;;;;23.20;11.85;;;;;;;8.12;71.73;102533.28;5031786;28;20037;-60
2022/11/26 01:38:46;;;;;;;20.30;11.10;;;;;;;8.08;71.12;102540.25;5022666;28;20505;-59
2022/11/26 01:41:26;;;;;;;21.02;11.27;;;;;;;8.06;71.70;102536.00;5010993;28;20101;-60
2022/11/26 01:43:53;;;;;;;20.80;10.80;;;;;;;8.09;70.93;102546.63;5019259;28;20029;-60
2022/11/26 01:46:21;;;;;;;22.88;11.38;;;;;;;8.02;71.37;102545.72;5031549;28;20041;-60
2022/11/26 01:48:48;;;;;;;20.77;10.85;;;;;;;8.07;71.08;102546.00;5030296;28;20076;-60
2022/11/26 01:51:17;;;;;;;21.63;10.85;;;;;;;8.02;70.64;102551.25;5029183;28;20151;-60
2022/11/26 01:53:57;;;;;;;23.15;10.70;;;;;;;8.05;71.34;102564.69;5028398;28;20447;-60
2022/11/26 01:56:32;;;;;;;20.85;11.00;;;;;;;8.00;70.53;102565.25;5010895;28;20470;-60
2022/11/26 01:59:13;;;;;;;19.10;10.60;;;;;;;7.96;70.59;102554.78;5017195;28;20036;-60
2022/11/26 02:01:39;;;;;;;25.17;11.03;;;;;;;7.96;70.05;102558.41;5028290;28;20587;-60
2022/11/26 02:04:29;;;;;;;21.90;11.32;;;;;;;7.93;70.77;102560.72;5027911;28;20037;-60
2022/11/26 02:06:55;;;;;;;20.10;10.45;;;;;;;7.87;70.68;102565.97;5013113;28;20037;-60
2022/11/26 02:09:26;;;;;;;23.63;11.45;;;;;;;7.87;71.01;102576.19;5010539;28;20758;-60
2022/11/26 02:11:52;;;;;;;22.50;10.75;;;;;;;7.91;71.22;102571.13;5016854;28;20060;-60
2022/11/26 02:14:24;;;;;;;20.13;10.90;;;;;;;7.87;71.54;102576.19;5020330;28;20045;-60
2022/11/26 02:17:08;;;;;;;31.60;11.65;;;;;;;7.90;71.92;102577.69;5028144;28;20076;-60
2022/11/26 02:20:00;;;;;;;23.67;10.52;;;;;;;7.92;71.45;102581.97;5030880;28;20104;-61
2022/11/26 02:23:03;;;;;;;25.88;10.98;;;;;;;7.95;71.57;102589.88;5029898;28;20037;-60
2022/11/26 02:26:01;;;;;;;20.80;10.00;;;;;;;7.94;71.58;102587.28;5020005;28;20124;-60
2022/11/26 02:28:51;;;;;;;25.40;10.73;;;;;;;7.95;72.19;102587.13;5028390;28;20049;-60
2022/11/26 02:31:35;;;;;;;23.48;10.40;;;;;;;7.98;71.38;102588.66;5022746;28;20108;-60
2022/11/26 02:34:12;;;;;;;22.42;10.60;;;;;;;7.91;72.24;102587.72;5011232;28;20049;-60
2022/11/26 02:36:42;;;;;;;23.40;10.50;;;;;;;7.91;71.91;102588.56;5023975;28;20025;-60
2022/11/26 02:39:13;;;;;;;24.10;10.80;;;;;;;7.89;71.91;102582.34;5030974;28;20091;-61
2022/11/26 02:41:48;;;;;;;18.83;10.65;;;;;;;7.85;72.31;102579.09;5030327;28;20055;-60
2022/11/26 02:44:16;;;;;;;22.70;10.52;;;;;;;7.84;72.03;102582.94;5030126;28;20078;-60
2022/11/26 02:46:43;;;;;;;25.63;11.05;;;;;;;7.82;70.90;102584.16;5030258;28;20061;-60
2022/11/26 02:49:11;;;;;;;24.05;11.05;;;;;;;7.81;71.33;102588.00;5030914;28;20022;-60
2022/11/26 02:51:40;;;;;;;25.02;10.30;;;;;;;7.75;71.13;102594.31;5021137;28;20495;-60
2022/11/26 02:54:08;;;;;;;21.80;10.32;;;;;;;7.75;71.94;102600.69;5029543;28;20041;-60
2022/11/26 02:56:34;;;;;;;22.27;10.52;;;;;;;7.77;71.42;102593.03;5028357;28;20022;-60
2022/11/26 02:59:01;;;;;;;21.05;10.40;;;;;;;7.76;71.10;102601.53;5029790;28;20122;-59
2022/11/26 03:01:30;;;;;;;21.65;10.15;;;;;;;7.71;71.35;102598.50;5029844;28;20069;-60
2022/11/26 03:04:00;;;;;;;20.88;10.20;;;;;;;7.73;71.66;102597.25;5030739;28;20041;-60
2022/11/26 03:06:28;;;;;;;24.25;10.55;;;;;;;7.71;71.53;102604.03;5029931;28;20037;-60
2022/11/26 03:08:54;;;;;;;21.38;9.88;;;;;;;7.68;71.33;102608.03;5030511;28;20501;-61
2022/11/26 03:11:20;;;;;;;19.00;9.85;;;;;;;7.67;71.38;102613.75;5027897;28;20037;-60
2022/11/26 03:13:46;;;;;;;21.02;9.73;;;;;;;7.68;71.95;102613.56;5029599;28;20022;-60
2022/11/26 03:16:12;;;;;;;23.30;10.80;;;;;;;7.66;71.72;102612.00;5027152;28;20026;-60
2022/11/26 03:18:37;;;;;;;21.40;9.95;;;;;;;7.69;71.38;102614.41;5029281;28;20044;-61
2022/11/26 03:21:02;;;;;;;22.38;10.23;;;;;;;7.66;71.82;102615.63;5029079;28;20029;-60
2022/11/26 03:23:28;;;;;;;22.90;10.27;;;;;;;7.66;71.46;102614.78;5030412;28;20036;-60
2022/11/26 03:25:53;;;;;;;24.33;10.05;;;;;;;7.63;71.14;102618.81;5017625;28;20393;-60
2022/11/26 03:28:18;;;;;;;17.80;9.88;;;;;;;7.60;71.61;102617.25;5033384;28;20029;-60
2022/11/26 03:30:43;;;;;;;21.48;9.73;;;;;;;7.61;71.67;102618.97;5022879;28;20499;-60
2022/11/26 03:33:09;;;;;;;18.42;9.27;;;;;;;7.60;71.27;102627.47;5030451;28;20046;-60
2022/11/26 03:35:34;;;;;;;19.00;9.63;;;;;;;7.55;70.58;102632.72;5033593;28;20033;-61
2022/11/26 03:38:00;;;;;;;18.35;9.68;;;;;;;7.51;70.78;102626.72;5033146;28;20099;-60
2022/11/26 03:40:25;;;;;;;17.83;8.90;;;;;;;7.52;70.51;102622.03;5032884;28;20029;-61
2022/11/26 03:42:50;;;;;;;16.42;8.75;;;;;;;7.48;70.05;102620.69;5033674;28;20018;-60
2022/11/26 03:45:18;;;;;;;19.85;9.50;;;;;;;7.42;70.30;102624.19;5028591;28;21350;-59
2022/11/26 03:47:44;;;;;;;18.25;9.18;;;;;;;7.43;71.26;102625.91;5025540;28;20033;-60
2022/11/26 03:50:09;;;;;;;22.17;9.57;;;;;;;7.39;70.74;102617.16;5033012;28;20381;-60
2022/11/26 03:52:34;;;;;;;21.73;9.93;;;;;;;7.36;70.55;102623.91;5033149;28;20038;-60
2022/11/26 03:55:00;;;;;;;20.63;9.15;;;;;;;7.40;70.27;102629.94;5032390;28;20032;-61
2022/11/26 03:57:25;;;;;;;20.88;9.50;;;;;;;7.39;71.25;102633.75;5032763;28;20033;-60
2022/11/26 03:59:50;;;;;;;17.30;8.75;;;;;;;7.38;70.79;102632.00;5030694;28;20045;-60
2022/11/26 04:02:15;;;;;;;20.60;9.40;;;;;;;7.38;70.16;102626.47;5029296;28;20048;-60
2022/11/26 04:04:41;;;;;;;14.38;9.27;;;;;;;7.36;71.19;102637.72;5027001;28;20057;-60
2022/11/26 04:07:06;;;;;;;23.23;10.00;;;;;;;7.34;70.86;102638.97;5033006;28;20457;-60
2022/11/26 04:09:32;;;;;;;18.73;9.00;;;;;;;7.35;70.86;102644.31;5032247;28;20044;-60
2022/11/26 04:11:57;;;;;;;20.90;9.70;;;;;;;7.32;71.04;102644.69;5033188;28;20043;-60
2022/11/26 04:14:22;;;;;;;21.40;9.60;;;;;;;7.32;71.16;102644.69;5031378;28;20064;-60
2022/11/26 04:16:48;;;;;;;22.48;9.32;;;;;;;7.32;70.92;102650.22;5032091;28;20072;-60
2022/11/26 04:19:13;;;;;;;24.25;8.85;;;;;;;7.25;71.49;102649.22;5030574;28;20072;-60
2022/11/26 04:21:38;;;;;;;21.52;9.27;;;;;;;7.30;71.31;102660.56;5027663;28;20033;-60
2022/11/26 04:24:04;;;;;;;22.33;9.35;;;;;;;7.26;71.67;102661.13;5030389;28;20084;-60
2022/11/26 04:26:29;;;;;;;20.90;8.93;;;;;;;7.25;72.20;102660.28;5030083;28;20037;-60
2022/11/26 04:28:54;;;;;;;23.08;9.98;;;;;;;7.32;72.30;102666.78;5031646;28;20378;-60
2022/11/26 04:31:20;;;;;;;18.20;7.97;;;;;;;7.32;71.33;102657.63;5032077;28;20037;-60
2022/11/26 04:33:47;;;;;;;19.80;9.10;;;;;;;7.26;71.70;102656.47;5032413;28;20400;-60
2022/11/26 04:36:13;;;;;;;23.40;9.30;;;;;;;7.32;72.17;102650.22;5026720;28;20606;-60
2022/11/26 04:38:38;;;;;;;19.35;8.48;;;;;;;7.34;71.40;102659.16;5024792;28;20045;-60
2022/11/26 04:41:04;;;;;;;25.02;9.13;;;;;;;7.30;72.40;102662.47;5032438;28;20031;-60
2022/11/26 04:43:29;;;;;;;24.05;9.90;;;;;;;7.33;71.56;102662.09;5030520;28;20044;-60
2022/11/26 04:45:54;;;;;;;20.20;8.32;;;;;;;7.26;71.15;102652.84;5029816;28;20025;-60
2022/11/26 04:48:20;;;;;;;17.88;8.82;;;;;;;7.25;71.30;102659.44;5031001;28;20071;-60
2022/11/26 04:50:45;;;;;;;16.70;8.07;;;;;;;7.19;71.24;102671.22;5028604;28;20377;-60
2022/11/26 04:53:11;;;;;;;14.98;7.88;;;;;;;7.17;71.06;102663.13;5025404;28;20099;-60
2022/11/26 04:55:36;;;;;;;15.48;8.45;;;;;;;7.18;70.73;102663.97;5031263;28;20108;-60
2022/11/26 04:58:02;;;;;;;18.50;9.10;;;;;;;7.14;71.46;102664.34;5031434;28;20381;-60
2022/11/26 05:00:27;;;;;;;20.63;8.68;;;;;;;7.13;71.44;102659.88;5030511;28;20017;-59
2022/11/26 05:02:52;;;;;;;17.42;8.73;;;;;;;7.13;71.89;102665.38;5019354;28;20026;-60
2022/11/26 05:05:18;;;;;;;25.45;8.65;;;;;;;7.18;72.06;102661.22;5030298;28;20511;-60
2022/11/26 05:07:43;;;;;;;19.33;9.20;;;;;;;7.16;72.27;102663.31;5029943;28;20447;-60
2022/11/26 05:10:09;;;;;;;17.65;8.75;;;;;;;7.12;73.22;102668.34;5024704;28;20037;-60
2022/11/26 05:12:35;;;;;;;19.17;8.77;;;;;;;7.11;72.31;102664.75;5017832;28;20430;-60
2022/11/26 05:15:01;;;;;;;21.38;8.57;;;;;;;7.12;73.09;102671.13;5021980;28;20029;-60
2022/11/26 05:17:27;;;;;;;24.25;9.65;;;;;;;7.14;73.28;102671.78;5030046;28;20117;-59
2022/11/26 05:19:52;;;;;;;23.13;9.00;;;;;;;7.17;73.12;102674.16;5029962;28;20125;-60
2022/11/26 05:22:17;;;;;;;25.80;9.90;;;;;;;7.21;73.38;102678.28;5031856;28;20026;-60
2022/11/26 05:24:43;;;;;;;20.77;8.40;;;;;;;7.20;72.58;102676.56;5030512;28;20044;-60
2022/11/26 05:27:08;;;;;;;20.63;9.25;;;;;;;7.14;72.98;102678.16;5031302;28;20021;-60
2022/11/26 05:29:33;;;;;;;18.85;9.40;;;;;;;7.14;72.85;102674.53;5031521;28;20033;-60
2022/11/26 05:31:59;;;;;;;20.98;8.60;;;;;;;7.12;72.99;102685.78;5030617;28;20410;-60
2022/11/26 05:34:24;;;;;;;19.35;8.50;;;;;;;7.13;72.99;102684.72;5028644;28;20056;-60
2022/11/26 05:36:49;;;;;;;21.45;8.68;;;;;;;7.17;72.49;102687.13;5030871;28;20040;-60
2022/11/26 05:39:15;;;;;;;19.52;8.23;;;;;;;7.16;73.08;102688.19;5031607;28;20695;-60
2022/11/26 05:41:40;;;;;;;20.23;8.45;;;;;;;7.13;73.24;102684.72;5031016;28;20047;-60
2022/11/26 05:44:06;;;;;;;18.73;8.73;;;;;;;7.14;73.14;102683.66;5028711;28;20120;-59
2022/11/26 05:46:31;;;;;;;23.30;9.02;;;;;;;7.14;73.29;102700.25;5028052;28;20029;-61
2022/11/26 05:48:56;;;;;;;23.77;9.45;;;;;;;7.11;72.80;102692.34;5027002;28;20059;-60
2022/11/26 05:51:22;;;;;;;20.77;8.43;;;;;;;7.12;73.88;102694.06;5029710;28;20103;-60
2022/11/26 05:53:47;;;;;;;19.73;9.15;;;;;;;7.12;73.16;102696.81;5025315;28;20551;-60
2022/11/26 05:56:12;;;;;;;22.55;9.60;;;;;;;7.12;72.97;102699.59;5022128;28;20530;-60
2022/11/26 05:58:37;;;;;;;18.90;8.52;;;;;;;7.12;73.04;102704.25;5028729;28;20519;-60
2022/11/26 06:01:28;;;;;;;19.63;8.88;;;;;;;7.09;73.30;102710.13;5024364;28;20041;-60
2022/11/26 06:03:52;;;;;;;20.23;9.25;;;;;;;7.10;73.67;102717.38;5028150;28;20049;-60
2022/11/26 06:06:18;;;;;;;17.08;8.18;;;;;;;7.12;73.34;102720.81;5017477;28;20098;-60
2022/11/26 06:08:43;;;;;;;21.25;9.05;;;;;;;7.12;73.74;102718.91;5028040;28;20032;-59
2022/11/26 06:11:11;;;;;;;21.23;8.75;;;;;;;7.08;73.29;102720.31;5015556;28;20033;-60
2022/11/26 06:13:36;;;;;;;19.70;8.27;;;;;;;7.08;72.77;102714.81;5027904;28;20114;-60
2022/11/26 06:16:01;;;;;;;24.08;8.82;;;;;;;7.13;73.28;102728.91;5028790;28;20120;-60
2022/11/26 06:18:27;;;;;;;22.85;8.45;;;;;;;7.16;74.29;102722.16;5029603;28;20045;-59
2022/11/26 06:20:52;;;;;;;17.48;8.45;;;;;;;7.14;73.54;102719.56;5026301;28;20028;-59
2022/11/26 06:23:17;;;;;;;19.15;8.30;;;;;;;7.12;73.21;102720.81;5028029;28;20480;-60
2022/11/26 06:25:42;;;;;;;22.80;9.10;;;;;;;7.13;73.62;102723.38;5027894;28;20025;-59
2022/11/26 06:28:08;;;;;;;21.42;9.15;;;;;;;7.07;73.07;102714.97;5028458;28;20602;-59
2022/11/26 06:30:33;;;;;;;21.13;8.52;;;;;;;7.10;73.03;102729.25;5026060;28;20040;-59
2022/11/26 06:32:58;;;;;;;19.65;8.50;;;;;;;7.09;73.59;102730.31;5029162;28;20045;-59
2022/11/26 06:35:24;;;;;;;20.75;8.20;;;;;;;7.06;73.35;102724.31;5029013;28;20033;-59
2022/11/26 06:37:49;;;;;;;17.13;8.48;;;;;;;7.05;73.31;102725.34;5028510;28;20384;-59
2022/11/26 06:40:17;;;;;;;24.00;8.85;;;;;;;7.01;73.32;102732.28;5026861;28;20048;-59
2022/11/26 06:42:50;;;;;;;15.95;7.93;;;;;;;7.02;72.85;102732.09;5028508;28;20139;-58
2022/11/26 06:45:16;;;;;;;18.92;9.07;;;;;;;7.05;73.56;102737.25;5028160;28;20463;-58
2022/11/26 06:47:41;;;;;;;19.52;8.77;;;;;;;7.05;72.55;102737.25;5026814;28;20044;-59
2022/11/26 06:50:07;;;;;;;19.83;8.38;;;;;;;7.05;73.08;102740.00;5017222;28;20040;-58
2022/11/26 06:52:32;;;;;;;22.45;9.18;;;;;;;7.04;72.73;102738.31;5040896;28;20444;-58
2022/11/26 06:54:57;;;;;;;20.75;8.57;;;;;;;7.06;72.60;102736.19;5034790;28;20069;-58
2022/11/26 06:57:22;;;;;;;25.33;8.93;;;;;;;7.01;73.61;102735.06;5028520;28;20037;-58
2022/11/26 06:59:48;;;;;;;21.98;9.27;;;;;;;6.98;73.05;102736.25;5014038;28;20030;-59
2022/11/26 07:02:13;;;;;;;20.00;8.93;;;;;;;7.01;72.93;102740.56;5024261;28;20033;-58
2022/11/26 07:04:38;;;;;;;22.33;9.35;;;;;;;7.00;72.87;102744.38;5034048;28;20021;-59
2022/11/26 07:07:04;;;;;;;17.35;8.30;;;;;;;6.99;73.57;102760.06;5034232;28;20043;-59
2022/11/26 07:09:29;;;;;;;29.45;9.10;;;;;;;7.01;73.52;102751.63;5034314;28;20014;-60
2022/11/26 07:11:55;;;;;;;18.92;9.10;;;;;;;6.98;73.32;102754.72;5033537;28;20025;-59
2022/11/26 07:14:21;;;;;;;16.65;8.20;;;;;;;6.99;73.24;102754.53;5033942;28;20037;-59
2022/11/26 07:16:47;;;;;;;22.38;8.43;;;;;;;7.01;73.81;102755.22;5033971;28;20759;-58
2022/11/26 07:19:13;;;;;;;21.90;9.20;;;;;;;7.00;72.94;102767.31;5033268;28;20029;-59
2022/11/26 07:21:39;;;;;;;22.67;8.73;;;;;;;6.98;73.25;102763.88;5034457;28;20136;-58
2022/11/26 07:24:05;;;;;;;21.17;9.13;;;;;;;7.00;73.40;102764.56;5034289;28;20079;-58
2022/11/26 07:26:30;;;;;;;25.33;9.40;;;;;;;6.99;73.47;102781.28;5032812;28;20045;-59
2022/11/26 07:28:55;;;;;;;18.90;8.27;;;;;;;6.98;73.81;102777.69;5034390;28;20026;-59
2022/11/26 07:31:22;;;;;;;19.63;8.88;;;;;;;6.99;73.22;102782.16;5034332;28;20132;-59
2022/11/26 07:33:51;;;;;;;20.88;8.32;;;;;;;6.98;73.25;102785.97;5021289;28;20056;-58
2022/11/26 07:36:23;;;;;;;18.98;9.15;;;;;;;6.96;73.46;102784.44;5032623;28;20076;-58
2022/11/26 07:38:48;;;;;;;22.83;9.02;;;;;;;6.94;73.36;102787.38;5027633;28;20026;-58
2022/11/26 07:41:17;;;;;;;18.83;8.30;;;;;;;6.97;72.97;102784.25;5013254;28;20492;-59
2022/11/26 07:43:42;;;;;;;21.75;9.38;;;;;;;6.92;73.38;102780.28;5013745;28;20453;-59
2022/11/26 07:46:11;;;;;;;22.38;9.95;;;;;;;6.92;73.85;102781.19;5013071;28;20041;-59
2022/11/26 07:48:38;;;;;;;24.55;9.90;;;;;;;6.96;73.63;102782.53;5029528;28;20468;-59
2022/11/26 07:51:04;;;;;;;20.85;9.60;;;;;;;6.93;73.99;102785.66;5045764;28;20040;-58
2022/11/26 07:53:34;;;;;;;25.60;11.05;;;;;;;6.94;73.83;102781.84;5032233;28;20029;-59
2022/11/26 07:56:03;;;;;;;19.70;9.65;;;;;;;6.94;73.56;102784.59;5033039;28;20022;-59
2022/11/26 07:58:28;;;;;;;24.98;10.65;;;;;;;6.93;74.34;102780.13;5033096;28;20065;-59
2022/11/26 08:00:53;;;;;;;23.08;11.35;;;;;;;7.00;73.38;102783.03;5032781;28;20060;-59
2022/11/26 08:03:18;;;;;;;25.33;11.20;;;;;;;6.96;74.29;102777.00;5029685;28;20400;-59
2022/11/26 08:05:44;;;;;;;23.55;11.32;;;;;;;6.96;73.89;102785.31;5018354;28;20037;-59
2022/11/26 08:08:11;;;;;;;22.38;11.70;;;;;;;6.98;74.51;102783.19;5016458;28;20034;-59
2022/11/26 08:10:39;;;;;;;25.35;11.23;;;;;;;6.99;74.53;102787.66;5030214;28;20571;-59
2022/11/26 08:13:04;;;;;;;27.83;11.70;;;;;;;6.97;74.61;102783.41;5031857;28;20029;-59
2022/11/26 08:15:31;;;;;;;25.98;11.88;;;;;;;7.01;74.55;102785.59;5031091;28;20473;-59
2022/11/26 08:17:57;;;;;;;25.15;11.93;;;;;;;7.01;74.30;102785.59;5031305;28;20488;-59
2022/11/26 08:20:23;;;;;;;27.08;12.05;;;;;;;6.96;75.22;102793.59;5031453;28;20073;-59
2022/11/26 08:22:48;;;;;;;26.65;11.75;;;;;;;7.01;74.67;102791.13;5030925;28;20034;-59
2022/11/26 08:25:14;;;;;;;28.10;11.57;;;;;;;6.96;74.88;102795.50;5033019;28;20044;-59
2022/11/26 08:27:39;;;;;;;28.65;12.30;;;;;;;7.00;75.21;102794.09;5031733;28;20032;-59
2022/11/26 08:30:06;;;;;;;23.48;11.68;;;;;;;6.89;76.00;102798.97;5029577;28;20030;-59
2022/11/26 08:32:32;;;;;;;27.98;12.23;;;;;;;6.96;75.37;102801.88;5029101;28;20041;-60
2022/11/26 08:34:57;;;;;;;33.30;12.75;;;;;;;6.99;75.71;102801.47;5033246;28;20052;-59
2022/11/26 08:37:23;;;;;;;21.83;11.20;;;;;;;7.04;74.71;102800.97;5029513;28;20033;-60
2022/11/26 08:39:48;;;;;;;22.80;10.98;;;;;;;7.05;75.34;102799.91;5030997;28;20103;-60
2022/11/26 08:42:13;;;;;;;27.30;11.23;;;;;;;7.05;75.92;102808.19;5031132;28;20034;-59
2022/11/26 08:44:39;;;;;;;23.15;11.35;;;;;;;7.08;75.90;102813.34;5032461;28;20022;-60
2022/11/26 08:47:04;;;;;;;24.10;11.82;;;;;;;7.12;75.06;102807.28;5029950;28;20515;-59
2022/11/26 08:49:29;;;;;;;26.25;10.95;;;;;;;7.14;75.19;102807.94;5031077;28;20060;-59
2022/11/26 08:51:55;;;;;;;26.98;10.80;;;;;;;7.16;75.64;102804.16;5020078;28;20026;-59
2022/11/26 08:54:21;;;;;;;27.05;11.23;;;;;;;7.20;75.68;102794.47;5029441;28;20061;-59
2022/11/26 08:56:46;;;;;;;24.00;11.05;;;;;;;7.20;75.68;102794.47;5031398;28;20081;-60
2022/11/26 08:59:11;;;;;;;27.65;11.27;;;;;;;7.25;75.84;102797.53;5030128;28;20021;-60
2022/11/26 09:01:37;;;;;;;26.77;11.00;;;;;;;7.27;75.77;102798.19;5028335;28;20813;-59
2022/11/26 09:04:03;;;;;;;27.30;11.15;;;;;;;7.28;75.88;102802.69;5030571;28;20037;-60
2022/11/26 09:06:31;;;;;;;26.25;10.98;;;;;;;7.30;76.17;102804.19;5012848;28;20114;-60
2022/11/26 09:09:14;;;;;;;25.60;10.50;;;;;;;7.25;76.26;102806.66;5012375;28;20052;-60
2022/11/26 09:11:41;;;;;;;;;;;;;;;7.41;75.41;102813.97;5014457;28;20033;-60
2022/11/26 09:14:07;;;;;;;24.38;10.35;;;;;;;7.30;75.88;102814.41;5012467;28;20032;-59
2022/11/26 09:16:35;;;;;;;22.02;9.65;;;;;;;7.33;76.24;102814.03;5013369;28;20466;-60
2022/11/26 09:19:02;;;;;;;24.95;10.60;;;;;;;7.34;75.95;102818.50;5031084;28;20115;-60
2022/11/26 09:21:28;;;;;;;27.50;11.98;;;;;;;7.33;76.29;102820.41;5031867;28;20036;-60
2022/11/26 09:23:54;;;;;;;25.25;10.68;;;;;;;7.30;76.20;102830.97;5030568;28;20029;-60
2022/11/26 09:26:20;;;;;;;31.67;11.70;;;;;;;7.27;77.46;102826.69;5027969;28;20539;-60
2022/11/26 09:28:47;;;;;;;27.60;10.52;;;;;;;7.30;76.51;102834.59;5015063;28;20148;-59
2022/11/26 09:31:12;;;;;;;22.70;10.57;;;;;;;7.35;76.73;102839.59;5023331;28;20026;-59
2022/11/26 09:33:37;;;;;;;25.80;10.45;;;;;;;7.38;76.87;102837.28;5015590;28;20481;-60
2022/11/26 09:36:08;;;;;;;25.98;11.40;;;;;;;7.44;76.95;102841.25;5020458;28;20029;-60
2022/11/26 09:38:34;;;;;;;28.45;10.73;;;;;;;7.47;76.63;102842.78;5031000;28;20411;-60
2022/11/26 09:41:34;;;;;;;26.45;10.60;;;;;;;7.51;77.01;102841.38;5025390;28;20033;-60
2022/11/26 09:44:10;;;;;;;22.63;10.23;;;;;;;7.51;76.99;102864.34;5017274;28;20030;-59
2022/11/26 09:46:53;;;;;;;26.17;11.00;;;;;;;7.54;77.42;102836.31;5023603;28;20048;-60
2022/11/26 09:49:18;;;;;;;27.92;11.00;;;;;;;7.52;77.58;102837.56;5031925;28;20104;-60
2022/11/26 09:51:49;;;;;;;20.13;10.65;;;;;;;7.54;77.27;102827.16;5032117;28;20080;-58
2022/11/26 09:54:17;;;;;;;30.05;11.60;;;;;;;7.56;77.46;102834.25;5030997;28;20074;-60
2022/11/26 09:56:43;;;;;;;27.73;11.30;;;;;;;7.60;77.25;102831.97;5031351;28;20037;-60
2022/11/26 09:59:13;;;;;;;25.52;10.68;;;;;;;7.60;78.09;102835.59;5026135;28;20454;-59
2022/11/26 10:01:42;;;;;;;29.42;11.13;;;;;;;7.63;77.47;102832.47;5025507;28;20036;-60
2022/11/26 10:04:13;;;;;;;27.23;10.25;;;;;;;7.64;78.18;102833.31;5031949;28;20091;-59
2022/11/26 10:07:00;;;;;;;29.52;10.75;;;;;;;7.67;77.76;102835.72;5031409;28;20037;-60
2022/11/26 10:09:53;;;;;;;32.88;10.98;;;;;;;7.66;78.06;102841.41;5031076;28;20368;-59
2022/11/26 10:12:37;;;;;;;;;;;;;;;7.76;76.55;102844.78;5029574;28;20103;-60
2022/11/26 10:15:15;;;;;;;23.45;11.10;;;;;;;7.63;78.40;102837.13;5025891;28;19954;-60
2022/11/26 10:17:55;;;;;;;25.58;10.60;;;;;;;7.66;78.50;102844.19;5026321;28;20060;-59
2022/11/26 10:20:41;;;;;;;25.60;11.05;;;;;;;7.67;78.48;102840.38;5031117;28;20489;-60
2022/11/26 10:23:09;;;;;;;21.90;9.75;;;;;;;7.68;78.91;102836.56;5030644;28;20064;-60
2022/11/26 10:25:44;;;;;;;24.75;10.85;;;;;;;7.74;79.47;102836.69;5031160;28;20101;-60
2022/11/26 10:28:29;;;;;;;27.00;11.13;;;;;;;7.89;78.88;102833.94;5028614;28;20040;-60
2022/11/26 10:31:01;;;;;;;24.38;10.63;;;;;;;8.00;79.58;102838.19;5026081;28;20068;-59
2022/11/26 10:33:35;;;;;;;25.08;10.93;;;;;;;8.09;78.66;102823.22;5029307;28;20056;-59
2022/11/26 10:36:11;;;;;;;30.63;9.98;;;;;;;8.17;78.90;102827.81;5029784;28;20029;-60
2022/11/26 10:38:37;;;;;;;20.70;10.13;;;;;;;8.23;78.94;102819.63;5028708;28;20116;-60
2022/11/26 10:41:02;;;;;;;25.60;10.02;;;;;;;8.25;78.48;102816.66;5029455;28;20116;-60
2022/11/26 10:43:28;;;;;;;32.22;9.82;;;;;;;8.27;78.55;102811.81;5027739;28;20025;-60
2022/11/26 10:45:56;;;;;;;24.95;10.30;;;;;;;8.29;79.01;102810.56;5024708;28;20032;-60
2022/11/26 10:48:23;;;;;;;27.55;9.75;;;;;;;8.33;78.33;102806.38;5020495;28;20527;-60
2022/11/26 10:51:05;;;;;;;25.50;10.20;;;;;;;8.38;78.94;102805.81;5027543;28;20397;-61
2022/11/26 10:53:45;;;;;;;25.45;9.85;;;;;;;8.41;78.87;102808.22;5020105;28;20061;-61
2022/11/26 10:56:17;;;;;;;27.17;10.13;;;;;;;8.48;78.43;102806.38;5010075;28;20068;-60
2022/11/26 10:58:44;;;;;;;23.98;9.98;;;;;;;8.55;78.91;102810.09;5027710;28;20068;-61
2022/11/26 11:01:12;;;;;;;20.95;9.07;;;;;;;8.62;78.88;102806.59;5025396;28;20056;-61
2022/11/26 11:03:56;;;;;;;25.85;9.75;;;;;;;8.70;78.81;102814.78;5022755;28;20026;-60
2022/11/26 11:06:42;;;;;;;23.65;9.27;;;;;;;8.78;78.84;102809.13;5040790;28;20091;-61
2022/11/26 11:09:43;;;;;;;29.08;9.15;;;;;;;8.91;78.34;102803.75;5025111;28;20027;-60
2022/11/26 11:12:20;;;;;;;27.00;9.25;;;;;;;8.96;78.07;102798.50;5023096;28;20026;-61
2022/11/26 11:14:47;;;;;;;23.10;9.60;;;;;;;9.02;78.49;102802.41;5026509;28;20030;-61
2022/11/26 11:17:32;;;;;;;25.42;8.23;;;;;;;9.10;78.46;102811.44;5028897;28;20038;-61
2022/11/26 11:20:10;;;;;;;26.70;8.20;;;;;;;9.16;78.14;102812.59;5029633;28;20049;-61
2022/11/26 11:22:36;;;;;;;27.63;8.20;;;;;;;9.22;78.29;102813.69;5029904;28;20040;-61
2022/11/26 11:25:01;;;;;;;27.30;7.95;;;;;;;9.27;78.15;102816.72;5027886;28;20041;-61
2022/11/26 11:27:39;;;;;;;27.60;8.50;;;;;;;9.30;77.85;102816.34;5025758;28;20026;-62
2022/11/26 11:30:05;;;;;;;29.75;8.95;;;;;;;9.33;77.96;102810.41;5027602;28;20046;-58